KMOD

Modesto City-Co-Harry Sham Field Airport

Modesto, California, USA
METAR KMOD 220453Z AUTO 31010KT 10SM CLR 27/10 A2989 RMK AO2 SLP120 T02670100
Observed Flight Rules
Jun-22 @ 04:53 UTC (51 minutes ago) Visual Flight Rules
Wind Visibility Clouds
310° at 10 knots 10 miles
  • Clear skies
Temperatures Readings
Current 27°C / 81°F
Dewpoint 10°C / 50°F
Humidity 34%
Altimeter 29.89" Hg
Pressure 1012 hPa
Elevation 29
METAR KMOD 220453Z AUTO 31010KT 10SM CLR 27/10 A2989 RMK AO2 SLP120 T02670100
Observed Flight Rules
Jun-22 @ 04:53 UTC
(51 minutes ago)
VFR
Wind Visibility
310° at 10 knots 10 miles
Clouds
  • Clear skies
Temperature Dewpoint
27°C / 81°F 10°C / 50°F
Humidity Altimeter Pressure
34% 29.89" Hg 1012 hPa